sensor_id;sensor_type;location;lat;lon;timestamp;temperature;humidity
3818;DHT22;1924;48.078;11.516;2022-11-20T00:01:09;6.10;99.90
3818;DHT22;1924;48.078;11.516;2022-11-20T00:03:36;6.10;99.90
3818;DHT22;1924;48.078;11.516;2022-11-20T00:06:06;6.10;99.90
3818;DHT22;1924;48.078;11.516;2022-11-20T00:08:33;6.10;99.90
3818;DHT22;1924;48.078;11.516;2022-11-20T00:11:03;6.20;99.90
3818;DHT22;1924;48.078;11.516;2022-11-20T00:13:30;6.20;99.90
3818;DHT22;1924;48.078;11.516;2022-11-20T00:15:57;6.10;99.90
3818;DHT22;1924;48.078;11.516;2022-11-20T00:18:25;6.20;99.90
3818;DHT22;1924;48.078;11.516;2022-11-20T00:20:52;6.20;99.90
3818;DHT22;1924;48.078;11.516;2022-11-20T00:23:20;6.20;99.90
3818;DHT22;1924;48.078;11.516;2022-11-20T00:25:46;6.20;99.90
3818;DHT22;1924;48.078;11.516;2022-11-20T00:28:13;6.20;99.90
3818;DHT22;1924;48.078;11.516;2022-11-20T00:30:40;6.20;99.90
3818;DHT22;1924;48.078;11.516;2022-11-20T00:33:07;6.20;99.90
3818;DHT22;1924;48.078;11.516;2022-11-20T00:35:33;6.10;99.90
3818;DHT22;1924;48.078;11.516;2022-11-20T00:38:00;6.20;99.90
3818;DHT22;1924;48.078;11.516;2022-11-20T00:40:28;6.20;99.90
3818;DHT22;1924;48.078;11.516;2022-11-20T00:42:55;6.20;99.90
3818;DHT22;1924;48.078;11.516;2022-11-20T00:45:22;6.20;99.90
3818;DHT22;1924;48.078;11.516;2022-11-20T00:47:48;6.30;99.90
3818;DHT22;1924;48.078;11.516;2022-11-20T00:50:15;6.20;99.90
3818;DHT22;1924;48.078;11.516;2022-11-20T00:52:42;6.20;99.90
3818;DHT22;1924;48.078;11.516;2022-11-20T00:55:09;6.30;99.90
3818;DHT22;1924;48.078;11.516;2022-11-20T00:57:37;6.30;99.90
3818;DHT22;1924;48.078;11.516;2022-11-20T01:00:04;6.30;99.90
3818;DHT22;1924;48.078;11.516;2022-11-20T01:02:31;6.30;99.90
3818;DHT22;1924;48.078;11.516;2022-11-20T01:04:58;6.30;99.90
3818;DHT22;1924;48.078;11.516;2022-11-20T01:07:25;6.30;99.90
3818;DHT22;1924;48.078;11.516;2022-11-20T01:09:52;6.30;99.90
3818;DHT22;1924;48.078;11.516;2022-11-20T01:12:18;6.30;99.90
3818;DHT22;1924;48.078;11.516;2022-11-20T01:14:47;6.30;99.90
3818;DHT22;1924;48.078;11.516;2022-11-20T01:17:13;6.30;99.90
3818;DHT22;1924;48.078;11.516;2022-11-20T01:19:40;6.30;99.90
3818;DHT22;1924;48.078;11.516;2022-11-20T01:22:07;6.30;99.90
3818;DHT22;1924;48.078;11.516;2022-11-20T01:24:34;6.40;99.90
3818;DHT22;1924;48.078;11.516;2022-11-20T01:27:00;6.40;99.90
3818;DHT22;1924;48.078;11.516;2022-11-20T01:29:27;6.50;99.90
3818;DHT22;1924;48.078;11.516;2022-11-20T01:31:55;6.50;99.90
3818;DHT22;1924;48.078;11.516;2022-11-20T01:34:22;6.40;99.90
3818;DHT22;1924;48.078;11.516;2022-11-20T01:36:51;6.40;99.90
3818;DHT22;1924;48.078;11.516;2022-11-20T01:39:20;6.40;99.90
3818;DHT22;1924;48.078;11.516;2022-11-20T01:41:48;6.40;99.90
3818;DHT22;1924;48.078;11.516;2022-11-20T01:44:56;6.40;99.90
3818;DHT22;1924;48.078;11.516;2022-11-20T01:47:29;6.40;99.90
3818;DHT22;1924;48.078;11.516;2022-11-20T01:49:59;6.40;99.90
3818;DHT22;1924;48.078;11.516;2022-11-20T01:52:30;6.40;99.90
3818;DHT22;1924;48.078;11.516;2022-11-20T01:55:04;6.30;99.90
3818;DHT22;1924;48.078;11.516;2022-11-20T01:57:32;6.30;99.90
3818;DHT22;1924;48.078;11.516;2022-11-20T02:00:03;6.30;99.90
3818;DHT22;1924;48.078;11.516;2022-11-20T02:02:32;6.40;99.90
3818;DHT22;1924;48.078;11.516;2022-11-20T02:05:04;6.30;99.90
3818;DHT22;1924;48.078;11.516;2022-11-20T02:07:36;6.40;99.90
3818;DHT22;1924;48.078;11.516;2022-11-20T02:10:03;6.30;99.90
3818;DHT22;1924;48.078;11.516;2022-11-20T02:12:30;6.40;99.90
3818;DHT22;1924;48.078;11.516;2022-11-20T02:15:14;6.30;99.90
3818;DHT22;1924;48.078;11.516;2022-11-20T02:17:42;6.20;99.90
3818;DHT22;1924;48.078;11.516;2022-11-20T02:20:10;6.20;99.90
3818;DHT22;1924;48.078;11.516;2022-11-20T02:22:41;6.20;99.90
3818;DHT22;1924;48.078;11.516;2022-11-20T02:25:10;6.20;99.90
3818;DHT22;1924;48.078;11.516;2022-11-20T02:27:37;6.00;99.90
3818;DHT22;1924;48.078;11.516;2022-11-20T02:30:06;6.10;99.90
3818;DHT22;1924;48.078;11.516;2022-11-20T02:32:34;6.20;99.90
3818;DHT22;1924;48.078;11.516;2022-11-20T02:35:07;6.10;99.90
3818;DHT22;1924;48.078;11.516;2022-11-20T02:37:37;6.20;99.90
3818;DHT22;1924;48.078;11.516;2022-11-20T02:40:06;6.20;99.90
3818;DHT22;1924;48.078;11.516;2022-11-20T02:42:34;6.20;99.90
3818;DHT22;1924;48.078;11.516;2022-11-20T02:45:01;6.20;99.90
3818;DHT22;1924;48.078;11.516;2022-11-20T02:47:28;6.20;99.90
3818;DHT22;1924;48.078;11.516;2022-11-20T02:49:55;6.20;99.90
3818;DHT22;1924;48.078;11.516;2022-11-20T02:52:21;6.20;99.90
3818;DHT22;1924;48.078;11.516;2022-11-20T02:54:48;6.20;99.90
3818;DHT22;1924;48.078;11.516;2022-11-20T02:57:15;6.20;99.90
3818;DHT22;1924;48.078;11.516;2022-11-20T02:59:43;6.30;99.90
3818;DHT22;1924;48.078;11.516;2022-11-20T03:02:10;6.30;99.90
3818;DHT22;1924;48.078;11.516;2022-11-20T03:04:37;6.30;99.90
3818;DHT22;1924;48.078;11.516;2022-11-20T03:07:03;6.30;99.90
3818;DHT22;1924;48.078;11.516;2022-11-20T03:09:30;6.20;99.90
3818;DHT22;1924;48.078;11.516;2022-11-20T03:11:57;6.30;99.90
3818;DHT22;1924;48.078;11.516;2022-11-20T03:14:24;6.30;99.90
3818;DHT22;1924;48.078;11.516;2022-11-20T03:16:52;6.30;99.90
3818;DHT22;1924;48.078;11.516;2022-11-20T03:19:19;6.30;99.90
3818;DHT22;1924;48.078;11.516;2022-11-20T03:21:45;6.30;99.90
3818;DHT22;1924;48.078;11.516;2022-11-20T03:24:12;6.30;99.90
3818;DHT22;1924;48.078;11.516;2022-11-20T03:26:39;6.30;99.90
3818;DHT22;1924;48.078;11.516;2022-11-20T03:29:06;6.20;99.90
3818;DHT22;1924;48.078;11.516;2022-11-20T03:31:34;6.20;99.90
3818;DHT22;1924;48.078;11.516;2022-11-20T03:34:04;6.20;99.90
3818;DHT22;1924;48.078;11.516;2022-11-20T03:36:31;6.20;99.90
3818;DHT22;1924;48.078;11.516;2022-11-20T03:38:58;6.20;99.90
3818;DHT22;1924;48.078;11.516;2022-11-20T03:41:26;6.20;99.90
3818;DHT22;1924;48.078;11.516;2022-11-20T03:43:54;6.20;99.90
3818;DHT22;1924;48.078;11.516;2022-11-20T03:46:23;6.20;99.90
3818;DHT22;1924;48.078;11.516;2022-11-20T03:48:50;6.20;99.90
3818;DHT22;1924;48.078;11.516;2022-11-20T03:51:19;6.20;99.90
3818;DHT22;1924;48.078;11.516;2022-11-20T03:53:47;6.20;99.90
3818;DHT22;1924;48.078;11.516;2022-11-20T03:56:16;6.20;99.90
3818;DHT22;1924;48.078;11.516;2022-11-20T03:58:44;6.20;99.90
3818;DHT22;1924;48.078;11.516;2022-11-20T04:01:12;6.20;99.90
3818;DHT22;1924;48.078;11.516;2022-11-20T04:03:40;6.10;99.90
3818;DHT22;1924;48.078;11.516;2022-11-20T04:06:10;6.10;99.90
3818;DHT22;1924;48.078;11.516;2022-11-20T04:08:38;6.20;99.90
3818;DHT22;1924;48.078;11.516;2022-11-20T04:11:13;6.20;99.90
3818;DHT22;1924;48.078;11.516;2022-11-20T04:13:41;6.20;99.90
3818;DHT22;1924;48.078;11.516;2022-11-20T04:16:09;6.10;99.90
3818;DHT22;1924;48.078;11.516;2022-11-20T04:18:36;6.10;99.90
3818;DHT22;1924;48.078;11.516;2022-11-20T04:21:04;6.10;99.90
3818;DHT22;1924;48.078;11.516;2022-11-20T04:23:31;6.20;99.90
3818;DHT22;1924;48.078;11.516;2022-11-20T04:26:02;6.20;99.90
3818;DHT22;1924;48.078;11.516;2022-11-20T04:28:29;6.10;99.90
3818;DHT22;1924;48.078;11.516;2022-11-20T04:31:02;6.20;99.90
3818;DHT22;1924;48.078;11.516;2022-11-20T04:33:29;6.20;99.90
3818;DHT22;1924;48.078;11.516;2022-11-20T04:36:00;6.30;99.90
3818;DHT22;1924;48.078;11.516;2022-11-20T04:38:27;6.20;99.90
3818;DHT22;1924;48.078;11.516;2022-11-20T04:40:56;6.20;99.90
3818;DHT22;1924;48.078;11.516;2022-11-20T04:43:25;6.10;99.90
3818;DHT22;1924;48.078;11.516;2022-11-20T04:45:51;6.20;99.90
3818;DHT22;1924;48.078;11.516;2022-11-20T05:01:22;6.20;99.90
3818;DHT22;1924;48.078;11.516;2022-11-20T05:03:50;6.20;99.90
3818;DHT22;1924;48.078;11.516;2022-11-20T05:06:19;6.20;99.90
3818;DHT22;1924;48.078;11.516;2022-11-20T05:08:46;6.20;99.90
3818;DHT22;1924;48.078;11.516;2022-11-20T05:11:15;6.20;99.90
3818;DHT22;1924;48.078;11.516;2022-11-20T05:13:42;6.30;99.90
3818;DHT22;1924;48.078;11.516;2022-11-20T05:16:10;6.30;99.90
3818;DHT22;1924;48.078;11.516;2022-11-20T05:18:39;6.30;99.90
3818;DHT22;1924;48.078;11.516;2022-11-20T05:21:06;6.30;99.90
3818;DHT22;1924;48.078;11.516;2022-11-20T05:23:34;6.20;99.90
3818;DHT22;1924;48.078;11.516;2022-11-20T05:26:02;6.20;99.90
3818;DHT22;1924;48.078;11.516;2022-11-20T05:28:30;6.30;99.90
3818;DHT22;1924;48.078;11.516;2022-11-20T05:31:04;6.20;99.90
3818;DHT22;1924;48.078;11.516;2022-11-20T05:33:32;6.20;99.90
3818;DHT22;1924;48.078;11.516;2022-11-20T05:36:00;6.20;99.90
3818;DHT22;1924;48.078;11.516;2022-11-20T05:38:27;6.20;99.90
3818;DHT22;1924;48.078;11.516;2022-11-20T05:40:54;6.10;99.90
3818;DHT22;1924;48.078;11.516;2022-11-20T05:43:20;6.20;99.90
3818;DHT22;1924;48.078;11.516;2022-11-20T05:45:52;6.20;99.90
3818;DHT22;1924;48.078;11.516;2022-11-20T05:48:19;6.20;99.90
3818;DHT22;1924;48.078;11.516;2022-11-20T05:50:46;6.20;99.90
3818;DHT22;1924;48.078;11.516;2022-11-20T05:53:14;6.20;99.90
3818;DHT22;1924;48.078;11.516;2022-11-20T05:55:40;6.10;99.90
3818;DHT22;1924;48.078;11.516;2022-11-20T05:58:07;6.10;99.90
3818;DHT22;1924;48.078;11.516;2022-11-20T06:00:34;6.10;99.90
3818;DHT22;1924;48.078;11.516;2022-11-20T06:03:01;6.10;99.90
3818;DHT22;1924;48.078;11.516;2022-11-20T06:05:27;6.10;99.90
3818;DHT22;1924;48.078;11.516;2022-11-20T06:07:54;6.10;99.90
3818;DHT22;1924;48.078;11.516;2022-11-20T06:10:22;6.10;99.90
3818;DHT22;1924;48.078;11.516;2022-11-20T06:12:49;6.10;99.90
3818;DHT22;1924;48.078;11.516;2022-11-20T06:15:16;6.20;99.90
3818;DHT22;1924;48.078;11.516;2022-11-20T06:17:43;6.10;99.90
3818;DHT22;1924;48.078;11.516;2022-11-20T06:20:10;6.10;99.90
3818;DHT22;1924;48.078;11.516;2022-11-20T06:22:37;6.10;99.90
3818;DHT22;1924;48.078;11.516;2022-11-20T06:25:04;6.10;99.90
3818;DHT22;1924;48.078;11.516;2022-11-20T06:27:32;6.10;99.90
3818;DHT22;1924;48.078;11.516;2022-11-20T06:29:59;6.00;99.90
3818;DHT22;1924;48.078;11.516;2022-11-20T06:32:25;5.90;99.90
3818;DHT22;1924;48.078;11.516;2022-11-20T06:34:52;5.90;99.90
3818;DHT22;1924;48.078;11.516;2022-11-20T06:37:19;5.90;99.90
3818;DHT22;1924;48.078;11.516;2022-11-20T06:39:45;5.90;99.90
3818;DHT22;1924;48.078;11.516;2022-11-20T06:42:12;5.80;99.90
3818;DHT22;1924;48.078;11.516;2022-11-20T06:44:40;5.90;99.90
3818;DHT22;1924;48.078;11.516;2022-11-20T06:47:07;5.80;99.90
3818;DHT22;1924;48.078;11.516;2022-11-20T06:49:34;5.80;99.90
3818;DHT22;1924;48.078;11.516;2022-11-20T06:52:02;5.80;99.90
3818;DHT22;1924;48.078;11.516;2022-11-20T06:54:29;5.80;99.90
3818;DHT22;1924;48.078;11.516;2022-11-20T06:56:56;5.80;99.90
3818;DHT22;1924;48.078;11.516;2022-11-20T06:59:22;5.90;99.90
3818;DHT22;1924;48.078;11.516;2022-11-20T07:01:50;5.90;99.90
3818;DHT22;1924;48.078;11.516;2022-11-20T07:04:17;6.00;99.90
3818;DHT22;1924;48.078;11.516;2022-11-20T07:06:44;6.00;99.90
3818;DHT22;1924;48.078;11.516;2022-11-20T07:09:11;6.10;99.90
3818;DHT22;1924;48.078;11.516;2022-11-20T07:11:37;6.20;99.90
3818;DHT22;1924;48.078;11.516;2022-11-20T07:14:04;6.20;99.90
3818;DHT22;1924;48.078;11.516;2022-11-20T07:16:31;6.20;99.90
3818;DHT22;1924;48.078;11.516;2022-11-20T07:18:59;6.20;99.90
3818;DHT22;1924;48.078;11.516;2022-11-20T07:21:26;6.20;99.90
3818;DHT22;1924;48.078;11.516;2022-11-20T07:23:53;6.20;99.90
3818;DHT22;1924;48.078;11.516;2022-11-20T07:26:20;6.20;99.90
3818;DHT22;1924;48.078;11.516;2022-11-20T07:28:47;6.20;99.90
3818;DHT22;1924;48.078;11.516;2022-11-20T07:31:14;6.20;99.90
3818;DHT22;1924;48.078;11.516;2022-11-20T07:33:40;6.20;99.90
3818;DHT22;1924;48.078;11.516;2022-11-20T07:36:09;6.30;99.90
3818;DHT22;1924;48.078;11.516;2022-11-20T07:38:37;6.30;99.90
3818;DHT22;1924;48.078;11.516;2022-11-20T07:41:04;6.40;99.90
3818;DHT22;1924;48.078;11.516;2022-11-20T07:43:30;6.30;99.90
3818;DHT22;1924;48.078;11.516;2022-11-20T07:45:58;6.40;99.90
3818;DHT22;1924;48.078;11.516;2022-11-20T07:48:25;6.40;99.90
3818;DHT22;1924;48.078;11.516;2022-11-20T07:50:53;6.40;99.90
3818;DHT22;1924;48.078;11.516;2022-11-20T07:53:21;6.50;99.90
3818;DHT22;1924;48.078;11.516;2022-11-20T07:55:48;6.50;99.90
3818;DHT22;1924;48.078;11.516;2022-11-20T07:58:17;6.50;99.90
3818;DHT22;1924;48.078;11.516;2022-11-20T08:00:44;6.40;99.90
3818;DHT22;1924;48.078;11.516;2022-11-20T08:03:11;6.40;99.90
3818;DHT22;1924;48.078;11.516;2022-11-20T08:05:38;6.50;99.90
3818;DHT22;1924;48.078;11.516;2022-11-20T08:08:05;6.50;99.90
3818;DHT22;1924;48.078;11.516;2022-11-20T08:10:33;6.50;99.90
3818;DHT22;1924;48.078;11.516;2022-11-20T08:13:00;6.60;99.90
3818;DHT22;1924;48.078;11.516;2022-11-20T08:15:48;6.50;99.90
3818;DHT22;1924;48.078;11.516;2022-11-20T08:18:16;6.60;99.90
3818;DHT22;1924;48.078;11.516;2022-11-20T08:20:43;6.60;99.90
3818;DHT22;1924;48.078;11.516;2022-11-20T08:23:11;6.60;99.90
3818;DHT22;1924;48.078;11.516;2022-11-20T08:25:39;6.50;99.90
3818;DHT22;1924;48.078;11.516;2022-11-20T08:28:07;6.50;99.90
3818;DHT22;1924;48.078;11.516;2022-11-20T08:30:34;6.50;99.90
3818;DHT22;1924;48.078;11.516;2022-11-20T08:33:03;6.50;99.90
3818;DHT22;1924;48.078;11.516;2022-11-20T08:35:33;6.60;99.90
3818;DHT22;1924;48.078;11.516;2022-11-20T08:38:01;6.60;99.90
3818;DHT22;1924;48.078;11.516;2022-11-20T08:40:28;6.60;99.90
3818;DHT22;1924;48.078;11.516;2022-11-20T08:42:56;6.70;99.90
3818;DHT22;1924;48.078;11.516;2022-11-20T08:45:24;6.60;99.90
3818;DHT22;1924;48.078;11.516;2022-11-20T08:47:50;6.70;99.90
3818;DHT22;1924;48.078;11.516;2022-11-20T08:50:17;6.70;99.90
3818;DHT22;1924;48.078;11.516;2022-11-20T08:52:44;6.80;99.90
3818;DHT22;1924;48.078;11.516;2022-11-20T08:55:11;6.80;99.90
3818;DHT22;1924;48.078;11.516;2022-11-20T08:57:38;6.80;99.90
3818;DHT22;1924;48.078;11.516;2022-11-20T09:00:08;6.80;99.90
3818;DHT22;1924;48.078;11.516;2022-11-20T09:02:35;6.80;99.90
3818;DHT22;1924;48.078;11.516;2022-11-20T09:05:02;7.00;99.90
3818;DHT22;1924;48.078;11.516;2022-11-20T09:07:29;7.00;99.90
3818;DHT22;1924;48.078;11.516;2022-11-20T09:09:56;7.00;99.90
3818;DHT22;1924;48.078;11.516;2022-11-20T09:12:23;7.10;99.90
3818;DHT22;1924;48.078;11.516;2022-11-20T09:14:49;7.10;99.90
3818;DHT22;1924;48.078;11.516;2022-11-20T09:17:17;7.10;99.90
3818;DHT22;1924;48.078;11.516;2022-11-20T09:19:45;7.20;99.90
3818;DHT22;1924;48.078;11.516;2022-11-20T09:22:12;7.20;99.90
3818;DHT22;1924;48.078;11.516;2022-11-20T09:24:39;7.20;99.90
3818;DHT22;1924;48.078;11.516;2022-11-20T09:27:06;7.20;99.90
3818;DHT22;1924;48.078;11.516;2022-11-20T09:29:32;7.20;99.90
3818;DHT22;1924;48.078;11.516;2022-11-20T09:32:00;7.10;99.90
3818;DHT22;1924;48.078;11.516;2022-11-20T09:34:29;7.20;99.90
3818;DHT22;1924;48.078;11.516;2022-11-20T09:36:55;7.30;99.90
3818;DHT22;1924;48.078;11.516;2022-11-20T09:39:22;7.20;99.90
3818;DHT22;1924;48.078;11.516;2022-11-20T09:42:09;7.10;99.90
3818;DHT22;1924;48.078;11.516;2022-11-20T09:44:51;7.10;99.90
3818;DHT22;1924;48.078;11.516;2022-11-20T09:47:30;7.20;99.90
3818;DHT22;1924;48.078;11.516;2022-11-20T09:50:12;7.30;99.90
3818;DHT22;1924;48.078;11.516;2022-11-20T09:52:52;7.30;99.90
3818;DHT22;1924;48.078;11.516;2022-11-20T09:55:21;7.40;99.90
3818;DHT22;1924;48.078;11.516;2022-11-20T09:57:51;7.40;99.90
3818;DHT22;1924;48.078;11.516;2022-11-20T10:00:19;7.40;99.90
3818;DHT22;1924;48.078;11.516;2022-11-20T10:02:49;7.50;99.90
3818;DHT22;1924;48.078;11.516;2022-11-20T10:05:23;7.80;99.90
3818;DHT22;1924;48.078;11.516;2022-11-20T10:07:55;7.90;99.90
3818;DHT22;1924;48.078;11.516;2022-11-20T10:10:31;8.00;99.90
3818;DHT22;1924;48.078;11.516;2022-11-20T10:13:12;8.00;99.90
3818;DHT22;1924;48.078;11.516;2022-11-20T10:15:47;8.10;99.90
3818;DHT22;1924;48.078;11.516;2022-11-20T10:18:31;8.20;99.90
3818;DHT22;1924;48.078;11.516;2022-11-20T10:21:09;8.20;99.90
3818;DHT22;1924;48.078;11.516;2022-11-20T10:24:04;8.30;99.90
3818;DHT22;1924;48.078;11.516;2022-11-20T10:26:44;8.70;99.90
3818;DHT22;1924;48.078;11.516;2022-11-20T10:29:17;8.60;99.90
3818;DHT22;1924;48.078;11.516;2022-11-20T10:31:47;8.70;99.90
3818;DHT22;1924;48.078;11.516;2022-11-20T10:34:21;8.80;99.90
3818;DHT22;1924;48.078;11.516;2022-11-20T10:36:55;8.60;99.90
3818;DHT22;1924;48.078;11.516;2022-11-20T10:39:29;8.40;99.90
3818;DHT22;1924;48.078;11.516;2022-11-20T10:41:58;8.30;99.90
3818;DHT22;1924;48.078;11.516;2022-11-20T10:44:27;8.40;99.90
3818;DHT22;1924;48.078;11.516;2022-11-20T10:47:13;8.40;99.90
3818;DHT22;1924;48.078;11.516;2022-11-20T10:49:41;8.30;99.90
3818;DHT22;1924;48.078;11.516;2022-11-20T10:52:15;8.20;99.90
3818;DHT22;1924;48.078;11.516;2022-11-20T10:54:49;8.00;99.90
3818;DHT22;1924;48.078;11.516;2022-11-20T10:57:31;7.90;99.90
3818;DHT22;1924;48.078;11.516;2022-11-20T11:00:05;8.10;99.90
3818;DHT22;1924;48.078;11.516;2022-11-20T11:02:35;8.10;99.90
3818;DHT22;1924;48.078;11.516;2022-11-20T11:05:15;8.20;99.90
3818;DHT22;1924;48.078;11.516;2022-11-20T11:07:45;8.40;99.90
3818;DHT22;1924;48.078;11.516;2022-11-20T11:10:16;8.40;99.90
3818;DHT22;1924;48.078;11.516;2022-11-20T11:12:45;8.30;99.90
3818;DHT22;1924;48.078;11.516;2022-11-20T11:15:15;8.30;99.90
3818;DHT22;1924;48.078;11.516;2022-11-20T11:17:50;8.20;99.90
3818;DHT22;1924;48.078;11.516;2022-11-20T11:20:19;8.20;99.90
3818;DHT22;1924;48.078;11.516;2022-11-20T11:22:49;8.20;99.90
3818;DHT22;1924;48.078;11.516;2022-11-20T11:25:22;8.20;99.90
3818;DHT22;1924;48.078;11.516;2022-11-20T11:27:50;8.10;99.90
3818;DHT22;1924;48.078;11.516;2022-11-20T11:30:19;8.10;99.90
3818;DHT22;1924;48.078;11.516;2022-11-20T11:32:46;8.10;99.90
3818;DHT22;1924;48.078;11.516;2022-11-20T11:35:22;8.10;99.90
3818;DHT22;1924;48.078;11.516;2022-11-20T11:37:51;8.00;99.90
3818;DHT22;1924;48.078;11.516;2022-11-20T11:40:21;7.90;99.90
3818;DHT22;1924;48.078;11.516;2022-11-20T11:42:53;7.90;99.90
3818;DHT22;1924;48.078;11.516;2022-11-20T11:45:21;8.10;99.90
3818;DHT22;1924;48.078;11.516;2022-11-20T11:47:47;8.30;99.90
3818;DHT22;1924;48.078;11.516;2022-11-20T11:50:18;8.20;99.90
3818;DHT22;1924;48.078;11.516;2022-11-20T11:52:53;8.40;99.90
3818;DHT22;1924;48.078;11.516;2022-11-20T11:55:29;8.40;99.90
3818;DHT22;1924;48.078;11.516;2022-11-20T11:58:04;8.40;99.90
3818;DHT22;1924;48.078;11.516;2022-11-20T12:00:34;8.50;99.90
3818;DHT22;1924;48.078;11.516;2022-11-20T12:03:07;8.40;99.90
3818;DHT22;1924;48.078;11.516;2022-11-20T12:05:40;8.50;99.90
3818;DHT22;1924;48.078;11.516;2022-11-20T12:08:15;8.50;99.90
3818;DHT22;1924;48.078;11.516;2022-11-20T12:10:46;8.50;99.90
3818;DHT22;1924;48.078;11.516;2022-11-20T12:13:23;8.50;99.90
3818;DHT22;1924;48.078;11.516;2022-11-20T12:15:53;8.60;99.90
3818;DHT22;1924;48.078;11.516;2022-11-20T12:18:21;8.50;99.90
3818;DHT22;1924;48.078;11.516;2022-11-20T12:20:57;8.10;99.90
3818;DHT22;1924;48.078;11.516;2022-11-20T12:23:34;7.70;99.90
3818;DHT22;1924;48.078;11.516;2022-11-20T12:26:08;7.70;99.90
3818;DHT22;1924;48.078;11.516;2022-11-20T12:28:48;7.60;99.90
3818;DHT22;1924;48.078;11.516;2022-11-20T12:31:31;7.40;99.90
3818;DHT22;1924;48.078;11.516;2022-11-20T12:34:19;7.30;99.90
3818;DHT22;1924;48.078;11.516;2022-11-20T12:36:53;7.30;99.90
3818;DHT22;1924;48.078;11.516;2022-11-20T12:39:34;7.20;99.90
3818;DHT22;1924;48.078;11.516;2022-11-20T12:42:12;7.10;99.90
3818;DHT22;1924;48.078;11.516;2022-11-20T12:45:14;7.10;99.90
3818;DHT22;1924;48.078;11.516;2022-11-20T12:47:59;7.10;99.90
3818;DHT22;1924;48.078;11.516;2022-11-20T12:50:36;7.20;99.90
3818;DHT22;1924;48.078;11.516;2022-11-20T12:53:05;7.30;99.90
3818;DHT22;1924;48.078;11.516;2022-11-20T12:55:42;7.20;99.90
3818;DHT22;1924;48.078;11.516;2022-11-20T12:58:17;7.30;99.90
3818;DHT22;1924;48.078;11.516;2022-11-20T13:00:54;7.30;99.90
3818;DHT22;1924;48.078;11.516;2022-11-20T13:03:38;7.00;99.90
3818;DHT22;1924;48.078;11.516;2022-11-20T13:06:12;6.90;99.90
3818;DHT22;1924;48.078;11.516;2022-11-20T13:08:41;7.00;99.90
3818;DHT22;1924;48.078;11.516;2022-11-20T13:11:16;7.10;99.90
3818;DHT22;1924;48.078;11.516;2022-11-20T13:14:07;7.00;99.90
3818;DHT22;1924;48.078;11.516;2022-11-20T13:16:40;7.00;99.90
3818;DHT22;1924;48.078;11.516;2022-11-20T13:19:10;7.00;99.90
3818;DHT22;1924;48.078;11.516;2022-11-20T13:21:39;6.90;99.90
3818;DHT22;1924;48.078;11.516;2022-11-20T13:24:07;6.90;99.90
3818;DHT22;1924;48.078;11.516;2022-11-20T13:26:35;7.00;99.90
3818;DHT22;1924;48.078;11.516;2022-11-20T13:29:07;6.90;99.90
3818;DHT22;1924;48.078;11.516;2022-11-20T13:31:36;6.90;99.90
3818;DHT22;1924;48.078;11.516;2022-11-20T13:34:06;6.90;99.90
3818;DHT22;1924;48.078;11.516;2022-11-20T13:36:33;6.90;99.90
3818;DHT22;1924;48.078;11.516;2022-11-20T13:39:02;6.80;99.90
3818;DHT22;1924;48.078;11.516;2022-11-20T13:41:30;6.90;99.90
3818;DHT22;1924;48.078;11.516;2022-11-20T13:44:09;6.90;99.90
3818;DHT22;1924;48.078;11.516;2022-11-20T13:46:38;6.90;99.90
3818;DHT22;1924;48.078;11.516;2022-11-20T13:49:08;6.90;99.90
3818;DHT22;1924;48.078;11.516;2022-11-20T13:51:42;6.80;99.90
3818;DHT22;1924;48.078;11.516;2022-11-20T13:54:45;6.80;99.90
3818;DHT22;1924;48.078;11.516;2022-11-20T13:57:49;6.80;99.90
3818;DHT22;1924;48.078;11.516;2022-11-20T14:00:20;6.90;99.90
3818;DHT22;1924;48.078;11.516;2022-11-20T14:03:01;7.00;99.90
3818;DHT22;1924;48.078;11.516;2022-11-20T14:05:36;6.90;99.90
3818;DHT22;1924;48.078;11.516;2022-11-20T14:08:04;7.00;99.90
3818;DHT22;1924;48.078;11.516;2022-11-20T14:10:31;7.00;99.90
3818;DHT22;1924;48.078;11.516;2022-11-20T14:12:58;7.10;99.90
3818;DHT22;1924;48.078;11.516;2022-11-20T14:15:28;7.10;99.90
3818;DHT22;1924;48.078;11.516;2022-11-20T14:17:55;7.10;99.90
3818;DHT22;1924;48.078;11.516;2022-11-20T14:22:52;7.00;99.90
3818;DHT22;1924;48.078;11.516;2022-11-20T14:25:21;7.10;99.90
3818;DHT22;1924;48.078;11.516;2022-11-20T14:27:51;7.10;99.90
3818;DHT22;1924;48.078;11.516;2022-11-20T14:30:21;7.20;99.90
3818;DHT22;1924;48.078;11.516;2022-11-20T14:32:50;7.10;99.90
3818;DHT22;1924;48.078;11.516;2022-11-20T14:35:21;7.00;99.90
3818;DHT22;1924;48.078;11.516;2022-11-20T14:37:50;7.10;99.90
3818;DHT22;1924;48.078;11.516;2022-11-20T14:40:27;7.00;99.90
3818;DHT22;1924;48.078;11.516;2022-11-20T14:42:55;7.10;99.90
3818;DHT22;1924;48.078;11.516;2022-11-20T14:45:22;7.10;99.90
3818;DHT22;1924;48.078;11.516;2022-11-20T14:47:52;7.10;99.90
3818;DHT22;1924;48.078;11.516;2022-11-20T14:50:23;7.10;99.90
3818;DHT22;1924;48.078;11.516;2022-11-20T14:52:51;7.10;99.90
3818;DHT22;1924;48.078;11.516;2022-11-20T14:55:29;7.00;99.90
3818;DHT22;1924;48.078;11.516;2022-11-20T14:57:57;7.00;99.90
3818;DHT22;1924;48.078;11.516;2022-11-20T15:00:25;7.00;99.90
3818;DHT22;1924;48.078;11.516;2022-11-20T15:02:53;7.00;99.90
3818;DHT22;1924;48.078;11.516;2022-11-20T15:05:22;6.80;99.90
3818;DHT22;1924;48.078;11.516;2022-11-20T15:07:51;6.90;99.90
3818;DHT22;1924;48.078;11.516;2022-11-20T15:10:23;6.90;99.90
3818;DHT22;1924;48.078;11.516;2022-11-20T15:12:53;6.90;99.90
3818;DHT22;1924;48.078;11.516;2022-11-20T15:15:27;6.90;99.90
3818;DHT22;1924;48.078;11.516;2022-11-20T15:17:57;6.90;99.90
3818;DHT22;1924;48.078;11.516;2022-11-20T15:20:27;7.00;99.90
3818;DHT22;1924;48.078;11.516;2022-11-20T15:22:54;7.00;99.90
3818;DHT22;1924;48.078;11.516;2022-11-20T15:25:21;7.00;99.90
3818;DHT22;1924;48.078;11.516;2022-11-20T15:27:53;6.90;99.90
3818;DHT22;1924;48.078;11.516;2022-11-20T15:30:21;7.00;99.90
3818;DHT22;1924;48.078;11.516;2022-11-20T15:32:48;6.80;99.90
3818;DHT22;1924;48.078;11.516;2022-11-20T15:35:16;6.80;99.90
3818;DHT22;1924;48.078;11.516;2022-11-20T15:37:43;6.90;99.90
3818;DHT22;1924;48.078;11.516;2022-11-20T15:40:11;6.90;99.90
3818;DHT22;1924;48.078;11.516;2022-11-20T15:42:38;6.90;99.90
3818;DHT22;1924;48.078;11.516;2022-11-20T15:45:25;6.90;99.90
3818;DHT22;1924;48.078;11.516;2022-11-20T15:47:54;6.90;99.90
3818;DHT22;1924;48.078;11.516;2022-11-20T15:50:32;6.80;99.90
3818;DHT22;1924;48.078;11.516;2022-11-20T15:53:00;6.80;99.90
3818;DHT22;1924;48.078;11.516;2022-11-20T15:55:27;6.80;99.90
3818;DHT22;1924;48.078;11.516;2022-11-20T15:57:54;6.80;99.90
3818;DHT22;1924;48.078;11.516;2022-11-20T16:00:21;6.60;99.90
3818;DHT22;1924;48.078;11.516;2022-11-20T16:02:47;6.50;99.90
3818;DHT22;1924;48.078;11.516;2022-11-20T16:05:15;6.40;99.90
3818;DHT22;1924;48.078;11.516;2022-11-20T16:07:44;6.40;99.90
3818;DHT22;1924;48.078;11.516;2022-11-20T16:10:11;6.40;99.90
3818;DHT22;1924;48.078;11.516;2022-11-20T16:12:37;6.50;99.90
3818;DHT22;1924;48.078;11.516;2022-11-20T16:15:21;6.40;99.90
3818;DHT22;1924;48.078;11.516;2022-11-20T16:18:08;6.40;99.90
3818;DHT22;1924;48.078;11.516;2022-11-20T16:20:36;6.30;99.90
3818;DHT22;1924;48.078;11.516;2022-11-20T16:23:05;6.10;99.90
3818;DHT22;1924;48.078;11.516;2022-11-20T16:25:32;6.00;99.90
3818;DHT22;1924;48.078;11.516;2022-11-20T16:27:59;6.00;99.90
3818;DHT22;1924;48.078;11.516;2022-11-20T16:30:26;6.10;99.90
3818;DHT22;1924;48.078;11.516;2022-11-20T16:32:53;6.00;99.90
3818;DHT22;1924;48.078;11.516;2022-11-20T16:35:19;6.10;99.90